Aeroporto :
LOGIN :

Iscrizione | Disclaimer

   EN    FR    IT 

 










Sommario :    VFR   VFR Marginale   IFR   IFR Intensivo   IFR Molto Intensivo
Visibilità : 
Base nubi : 
>= 8 km
>= 3000ft
5 / 8 km
1000 / 3000 ft
1500m / 5 km
500 / 1000 ft
800 / 1500m
200 / 500 ft
< 800m
< 200 ft
Simboli :   Temporali  Nebbia  Neve Forte  Precipitazioni Forti  Vento > 20 kt
SIGMETs :   Varie  Temporali  Ghiacco  Turbolenza  Onda orograficha  Ceneri Vulcaniche






- Altitudine del aeroporto : 101 ft
- Codice IATA : HAD


ESMT - Halmstad

ULTIMO METAR :
  • 071320Z 31016KT CAVOK 12/03 Q1030

METARs OBSOLETI :
  • 071250Z 29017KT CAVOK 13/05 Q1030
  • 071220Z 29016KT CAVOK 12/05 Q1029
  • 071150Z 29015KT CAVOK 12/05 Q1029
  • 071120Z 29014KT CAVOK 11/06 Q1029
  • 071050Z 29014KT 9999 SCT012 10/06 Q1029

TAF TAF ESMT
Valido dal 07 a 12 ore il 07 a 15 ore UTC


071100Z 0712/0715 29015KT CAVOK
TEMPO 0712/0715 30018G28KT



MetMap, La meteo Aeronautica in un colpo d'occhio ! - Copyright ORBIFLY Dicembre 2007 - Disclaimer

ORBIFLY MET'MAP TEAM :

Programmazione e sviluppo : Alexandra Zaïnal
Concezione : Baudouin d'Aumeries
Aiuto per la programmazione : Marc-Olivier Méhu
Supporto tecnico e logistico : Manuel Goepfert
Aiuto per la traduzione : Arnaldo La Scala

Contatto : metmap@orbifly.com




FONTI E CREDITI :

   NOAA